Time;durP1;ratioP1;P1;durP2;ratioP2;P2;SDS_P1;SDS_P2;PMS_P1;PMS_P2;Temp;Humidity;BMP_temperature;BMP_pressure;BME280_temperature;BME280_humidity;BME280_pressure;Samples;Min_cycle;Max_cycle;Signal;HPM_P1;HPM_P2
2021/04/07 00:00:57;;;;;;;;;;;;;;;;;;1483589;40;8241;-60
2021/04/07 00:01:59;;;;;;;;;;;;;;;;;;1483227;40;8004;-61
2021/04/07 00:03:02;;;;;;;;;;;;;;;;;;1483194;40;6999;-61
2021/04/07 00:04:04;;;;;;;;;;;;;;;;;;1483216;40;6991;-60
2021/04/07 00:05:10;;;;;;;;;;;;;;;;;;1483110;40;8029;-61
2021/04/07 00:06:11;;;;;;;;;;;;;;;;;;1483198;40;7000;-61
2021/04/07 00:07:13;;;;;;;;;;;;;;;;;;1483076;40;7420;-60
2021/04/07 00:08:21;;;;;;;;;;;;;;;;;;1481330;40;7031;-61
2021/04/07 00:09:25;;;;;;;;;;;;;;;;;;1483494;40;7134;-61
2021/04/07 00:10:37;;;;;;;;;;;;;;;;;;1478954;40;7011;-60
2021/04/07 00:11:39;;;;;;;;;;;;;;;;;;1479226;40;7027;-60
2021/04/07 00:12:42;;;;;;;;;;;;;;;;;;1478991;40;8398;-60
2021/04/07 00:13:45;;;;;;;;;;;;;;;;;;1480773;40;7538;-60
2021/04/07 00:14:47;;;;;;;;;;;;;;;;;;1482837;40;7990;-61
2021/04/07 00:15:51;;;;;;;;;;;;;;;;;;1482983;40;7215;-59
2021/04/07 00:16:52;;;;;;;;;;;;;;;;;;1483006;40;6991;-61
2021/04/07 00:17:55;;;;;;;;;;;;;;;;;;1482950;40;7122;-61
2021/04/07 00:18:57;;;;;;;;;;;;;;;;;;1481753;40;7001;-60
2021/04/07 00:19:59;;;;;;;;;;;;;;;;;;1479117;40;7234;-60
2021/04/07 00:21:02;;;;;;;;;;;;;;;;;;1479256;40;7887;-60
2021/04/07 00:22:04;;;;;;;;;;;;;;;;;;1479239;40;7028;-59
2021/04/07 00:23:06;;;;;;;;;;;;;;;;;;1478975;40;7946;-60
2021/04/07 00:24:08;;;;;;;;;;;;;;;;;;1478787;40;8278;-60
2021/04/07 00:25:11;;;;;;;;;;;;;;;;;;1478717;40;7052;-60
2021/04/07 00:26:13;;;;;;;;;;;;;;;;;;1478755;40;6996;-61
2021/04/07 00:27:16;;;;;;;;;;;;;;;;;;1478810;40;7067;-60
2021/04/07 00:28:20;;;;;;;;;;;;;;;;;;1479059;40;7950;-60
2021/04/07 00:29:22;;;;;;;;;;;;;;;;;;1479074;40;7027;-60
2021/04/07 00:30:26;;;;;;;;;;;;;;;;;;1478632;40;7217;-61
2021/04/07 00:31:28;;;;;;;;;;;;;;;;;;1478357;40;7000;-60
2021/04/07 00:32:31;;;;;;;;;;;;;;;;;;1478954;40;7000;-61
2021/04/07 00:33:33;;;;;;;;;;;;;;;;;;1479163;40;7023;-60
2021/04/07 00:34:35;;;;;;;;;;;;;;;;;;1487087;39;7004;-60
2021/04/07 00:35:37;;;;;;;;;;;;;;;;;;1486934;39;7112;-61
2021/04/07 00:36:39;;;;;;;;;;;;;;;;;;1479174;40;7027;-60
2021/04/07 00:37:41;;;;;;;;;;;;;;;;;;1479444;40;7905;-60
2021/04/07 00:38:44;;;;;;;;;;;;;;;;;;1479533;40;7165;-61
2021/04/07 00:39:46;;;;;;;;;;;;;;;;;;1479384;40;6995;-61
2021/04/07 00:40:48;;;;;;;;;;;;;;;;;;1479108;40;7008;-60
2021/04/07 00:41:50;;;;;;;;;;;;;;;;;;1479086;40;7111;-60
2021/04/07 00:42:53;;;;;;;;;;;;;;;;;;1479083;40;6991;-61
2021/04/07 00:44:01;;;;;;;;;;;;;;;;;;1479111;40;7200;-60
2021/04/07 00:45:08;;;;;;;;;;;;;;;;;;1479568;40;7040;-60
2021/04/07 00:46:10;;;;;;;;;;;;;;;;;;1486862;39;6995;-61
2021/04/07 00:47:15;;;;;;;;;;;;;;;;;;1486609;39;7198;-60
2021/04/07 00:48:18;;;;;;;;;;;;;;;;;;1479116;40;7028;-60
2021/04/07 00:49:20;;;;;;;;;;;;;;;;;;1478991;40;7883;-60
2021/04/07 00:50:24;;;;;;;;;;;;;;;;;;1479431;40;7112;-60
2021/04/07 00:51:26;;;;;;;;;;;;;;;;;;1479116;40;7031;-60
2021/04/07 00:52:28;;;;;;;;;;;;;;;;;;1483691;40;6999;-60
2021/04/07 00:53:30;;;;;;;;;;;;;;;;;;1483449;40;8002;-60
2021/04/07 00:54:32;;;;;;;;;;;;;;;;;;1483488;40;6991;-61
2021/04/07 00:55:35;;;;;;;;;;;;;;;;;;1483217;40;7096;-60
2021/04/07 00:56:38;;;;;;;;;;;;;;;;;;1483195;40;7987;-60
2021/04/07 00:57:40;;;;;;;;;;;;;;;;;;1483332;40;6991;-60
2021/04/07 00:58:42;;;;;;;;;;;;;;;;;;1483388;40;7027;-60
2021/04/07 00:59:45;;;;;;;;;;;;;;;;;;1483290;40;7034;-61
2021/04/07 01:00:47;;;;;;;;;;;;;;;;;;1483336;40;7143;-61
2021/04/07 01:01:49;;;;;;;;;;;;;;;;;;1483261;40;7199;-61
2021/04/07 01:02:56;;;;;;;;;;;;;;;;;;1483574;40;6999;-61
2021/04/07 01:03:59;;;;;;;;;;;;;;;;;;1478515;40;7044;-60
2021/04/07 01:05:02;;;;;;;;;;;;;;;;;;1479095;40;7983;-61
2021/04/07 01:06:04;;;;;;;;;;;;;;;;;;1478746;40;7000;-60
2021/04/07 01:07:07;;;;;;;;;;;;;;;;;;1479091;40;6996;-61
2021/04/07 01:08:09;;;;;;;;;;;;;;;;;;1478821;40;7974;-60
2021/04/07 01:09:11;;;;;;;;;;;;;;;;;;1482908;40;7113;-60
2021/04/07 01:10:14;;;;;;;;;;;;;;;;;;1483557;40;7952;-61
2021/04/07 01:11:17;;;;;;;;;;;;;;;;;;1482852;40;7044;-60
2021/04/07 01:12:19;;;;;;;;;;;;;;;;;;1479291;40;7131;-60
2021/04/07 01:13:21;;;;;;;;;;;;;;;;;;1478530;40;7144;-60
2021/04/07 01:14:23;;;;;;;;;;;;;;;;;;1479730;40;7115;-61
2021/04/07 01:15:25;;;;;;;;;;;;;;;;;;1482728;40;6999;-60
2021/04/07 01:16:27;;;;;;;;;;;;;;;;;;1479737;40;7007;-60
2021/04/07 01:17:29;;;;;;;;;;;;;;;;;;1482590;40;7111;-60
2021/04/07 01:18:33;;;;;;;;;;;;;;;;;;1483109;40;7031;-60
2021/04/07 01:19:35;;;;;;;;;;;;;;;;;;1478902;40;7176;-60
2021/04/07 01:20:37;;;;;;;;;;;;;;;;;;1480949;40;7170;-60
2021/04/07 01:21:42;;;;;;;;;;;;;;;;;;1480378;40;7027;-60
2021/04/07 01:22:50;;;;;;;;;;;;;;;;;;1478698;40;7973;-60
2021/04/07 01:23:52;;;;;;;;;;;;;;;;;;1478989;40;7350;-60
2021/04/07 01:24:55;;;;;;;;;;;;;;;;;;1479040;40;7119;-61
2021/04/07 01:25:57;;;;;;;;;;;;;;;;;;1490910;39;6991;-61
2021/04/07 01:27:10;;;;;;;;;;;;;;;;;;1488890;39;7015;-60
2021/04/07 01:28:13;;;;;;;;;;;;;;;;;;1483352;40;7031;-60
2021/04/07 01:29:15;;;;;;;;;;;;;;;;;;1483319;40;7038;-61
2021/04/07 01:30:18;;;;;;;;;;;;;;;;;;1481324;40;7950;-60
2021/04/07 01:31:19;;;;;;;;;;;;;;;;;;1478530;40;6991;-60
2021/04/07 01:32:22;;;;;;;;;;;;;;;;;;1478574;40;7027;-61
2021/04/07 01:33:24;;;;;;;;;;;;;;;;;;1487105;39;6991;-60
2021/04/07 01:34:29;;;;;;;;;;;;;;;;;;1486603;39;7100;-61
2021/04/07 01:35:31;;;;;;;;;;;;;;;;;;1479332;40;6991;-61
2021/04/07 01:36:32;;;;;;;;;;;;;;;;;;1479324;40;7078;-60
2021/04/07 01:37:36;;;;;;;;;;;;;;;;;;1478269;40;6999;-60
2021/04/07 01:38:38;;;;;;;;;;;;;;;;;;1483508;40;7000;-60
2021/04/07 01:39:41;;;;;;;;;;;;;;;;;;1482990;40;7986;-60
2021/04/07 01:40:44;;;;;;;;;;;;;;;;;;1483180;40;6997;-61
2021/04/07 01:41:47;;;;;;;;;;;;;;;;;;1483282;40;6999;-60
2021/04/07 01:42:49;;;;;;;;;;;;;;;;;;1483112;40;6987;-60
2021/04/07 01:43:52;;;;;;;;;;;;;;;;;;1483313;40;7030;-61
2021/04/07 01:44:55;;;;;;;;;;;;;;;;;;1483659;40;7026;-60
2021/04/07 01:45:58;;;;;;;;;;;;;;;;;;1483279;40;6991;-61
2021/04/07 01:47:01;;;;;;;;;;;;;;;;;;1483034;40;7901;-61
2021/04/07 01:48:03;;;;;;;;;;;;;;;;;;1482967;40;7051;-61
2021/04/07 01:49:08;;;;;;;;;;;;;;;;;;1483090;40;7039;-59
2021/04/07 01:50:10;;;;;;;;;;;;;;;;;;1483148;40;6999;-60
2021/04/07 01:51:12;;;;;;;;;;;;;;;;;;1483073;40;7019;-60
2021/04/07 01:52:14;;;;;;;;;;;;;;;;;;1483310;40;7035;-61
2021/04/07 01:53:18;;;;;;;;;;;;;;;;;;1483283;40;7863;-59
2021/04/07 01:54:20;;;;;;;;;;;;;;;;;;1483256;40;7125;-61
2021/04/07 01:55:22;;;;;;;;;;;;;;;;;;1478679;40;7028;-61
2021/04/07 01:56:24;;;;;;;;;;;;;;;;;;1478973;40;6999;-60
2021/04/07 01:57:26;;;;;;;;;;;;;;;;;;1478814;40;7139;-61
2021/04/07 01:58:28;;;;;;;;;;;;;;;;;;1478892;40;7954;-60
2021/04/07 01:59:31;;;;;;;;;;;;;;;;;;1478818;40;6995;-60
2021/04/07 02:00:33;;;;;;;;;;;;;;;;;;1479358;40;7898;-60
2021/04/07 02:01:36;;;;;;;;;;;;;;;;;;1479143;40;6999;-61
2021/04/07 02:02:38;;;;;;;;;;;;;;;;;;1479277;40;6992;-60
2021/04/07 02:03:40;;;;;;;;;;;;;;;;;;1478684;40;7029;-60
2021/04/07 02:04:42;;;;;;;;;;;;;;;;;;1478414;40;7920;-60
2021/04/07 02:05:44;;;;;;;;;;;;;;;;;;1479012;40;7108;-60
2021/04/07 02:06:46;;;;;;;;;;;;;;;;;;1478999;40;6991;-60
2021/04/07 02:07:48;;;;;;;;;;;;;;;;;;1478831;40;7109;-60
2021/04/07 02:08:50;;;;;;;;;;;;;;;;;;1481036;40;7881;-60
2021/04/07 02:09:52;;;;;;;;;;;;;;;;;;1482759;40;7016;-61
2021/04/07 02:10:55;;;;;;;;;;;;;;;;;;1482931;40;6999;-60
2021/04/07 02:11:57;;;;;;;;;;;;;;;;;;1479447;40;7152;-60
2021/04/07 02:13:01;;;;;;;;;;;;;;;;;;1478974;40;7031;-61
2021/04/07 02:14:03;;;;;;;;;;;;;;;;;;1478418;40;7932;-60
2021/04/07 02:15:11;;;;;;;;;;;;;;;;;;1479010;40;7938;-60
2021/04/07 02:16:13;;;;;;;;;;;;;;;;;;1481743;40;7113;-61
2021/04/07 02:17:16;;;;;;;;;;;;;;;;;;1482442;40;7184;-60
2021/04/07 02:18:18;;;;;;;;;;;;;;;;;;1480705;40;8062;-61
2021/04/07 02:19:24;;;;;;;;;;;;;;;;;;1480439;40;7007;-60
2021/04/07 02:20:26;;;;;;;;;;;;;;;;;;1480006;40;7903;-60
2021/04/07 02:21:28;;;;;;;;;;;;;;;;;;1478448;40;7194;-60
2021/04/07 02:22:30;;;;;;;;;;;;;;;;;;1478314;40;7030;-60
2021/04/07 02:23:33;;;;;;;;;;;;;;;;;;1478676;40;6999;-60
2021/04/07 02:24:36;;;;;;;;;;;;;;;;;;1478432;40;7000;-60
2021/04/07 02:25:38;;;;;;;;;;;;;;;;;;1478545;40;7035;-60
2021/04/07 02:26:40;;;;;;;;;;;;;;;;;;1486211;39;6991;-60
2021/04/07 02:27:41;;;;;;;;;;;;;;;;;;1486603;39;7121;-60
2021/04/07 02:28:43;;;;;;;;;;;;;;;;;;1479194;40;6999;-60
2021/04/07 02:29:48;;;;;;;;;;;;;;;;;;1479213;40;7027;-60
2021/04/07 02:30:50;;;;;;;;;;;;;;;;;;1478455;40;6999;-60
2021/04/07 02:31:52;;;;;;;;;;;;;;;;;;1478473;40;7000;-60
2021/04/07 02:32:54;;;;;;;;;;;;;;;;;;1479011;40;7204;-61
2021/04/07 02:33:56;;;;;;;;;;;;;;;;;;1478757;40;7891;-61
2021/04/07 02:34:58;;;;;;;;;;;;;;;;;;1478673;40;7026;-61
2021/04/07 02:35:59;;;;;;;;;;;;;;;;;;1478896;40;7119;-60
2021/04/07 02:37:02;;;;;;;;;;;;;;;;;;1479143;40;7128;-60
2021/04/07 02:38:07;;;;;;;;;;;;;;;;;;1479266;40;7027;-60
2021/04/07 02:39:09;;;;;;;;;;;;;;;;;;1478859;40;6991;-60
2021/04/07 02:40:11;;;;;;;;;;;;;;;;;;1482169;40;7925;-61
2021/04/07 02:41:13;;;;;;;;;;;;;;;;;;1482620;40;7112;-60
2021/04/07 02:42:16;;;;;;;;;;;;;;;;;;1483446;40;7027;-60
2021/04/07 02:43:18;;;;;;;;;;;;;;;;;;1483236;40;7206;-60
2021/04/07 02:44:20;;;;;;;;;;;;;;;;;;1482867;40;7079;-60
2021/04/07 02:45:22;;;;;;;;;;;;;;;;;;1482676;40;6995;-60
2021/04/07 02:46:24;;;;;;;;;;;;;;;;;;1483120;40;7210;-61
2021/04/07 02:47:26;;;;;;;;;;;;;;;;;;1483036;40;7001;-61
2021/04/07 02:48:28;;;;;;;;;;;;;;;;;;1482771;40;7031;-60
2021/04/07 02:49:30;;;;;;;;;;;;;;;;;;1482664;40;6992;-60
2021/04/07 02:50:32;;;;;;;;;;;;;;;;;;1482858;40;7059;-61
2021/04/07 02:51:34;;;;;;;;;;;;;;;;;;1483060;40;7000;-60
2021/04/07 02:52:36;;;;;;;;;;;;;;;;;;1478394;40;7952;-60
2021/04/07 02:53:38;;;;;;;;;;;;;;;;;;1478948;40;7027;-60
2021/04/07 02:54:40;;;;;;;;;;;;;;;;;;1478598;40;9296;-60
2021/04/07 02:55:42;;;;;;;;;;;;;;;;;;1478765;40;6991;-60
2021/04/07 02:56:44;;;;;;;;;;;;;;;;;;1478667;40;6992;-61
2021/04/07 02:57:47;;;;;;;;;;;;;;;;;;1478638;40;7923;-60
2021/04/07 02:58:49;;;;;;;;;;;;;;;;;;1478863;40;7214;-60
2021/04/07 02:59:51;;;;;;;;;;;;;;;;;;1478993;40;7031;-61
2021/04/07 03:00:52;;;;;;;;;;;;;;;;;;1478316;40;7867;-60
2021/04/07 03:01:54;;;;;;;;;;;;;;;;;;1478390;40;7190;-60
2021/04/07 03:02:56;;;;;;;;;;;;;;;;;;1478673;40;7000;-61
2021/04/07 03:03:58;;;;;;;;;;;;;;;;;;1478605;40;6992;-60
2021/04/07 03:05:00;;;;;;;;;;;;;;;;;;1478155;40;6992;-60
2021/04/07 03:06:02;;;;;;;;;;;;;;;;;;1478668;40;7027;-59
2021/04/07 03:07:04;;;;;;;;;;;;;;;;;;1478686;40;7087;-60
2021/04/07 03:08:06;;;;;;;;;;;;;;;;;;1478668;40;6997;-60
2021/04/07 03:09:08;;;;;;;;;;;;;;;;;;1482410;40;7110;-59
2021/04/07 03:10:11;;;;;;;;;;;;;;;;;;1483291;40;6992;-60
2021/04/07 03:11:13;;;;;;;;;;;;;;;;;;1482485;40;7039;-60
2021/04/07 03:12:15;;;;;;;;;;;;;;;;;;1478671;40;6996;-60
2021/04/07 03:13:17;;;;;;;;;;;;;;;;;;1478220;40;7136;-60
2021/04/07 03:14:19;;;;;;;;;;;;;;;;;;1478455;40;6991;-60
2021/04/07 03:15:21;;;;;;;;;;;;;;;;;;1478613;40;7106;-60
2021/04/07 03:16:23;;;;;;;;;;;;;;;;;;1478730;40;7027;-59
2021/04/07 03:17:25;;;;;;;;;;;;;;;;;;1480569;40;7016;-60
2021/04/07 03:18:27;;;;;;;;;;;;;;;;;;1480661;40;9950;-60
2021/04/07 03:19:29;;;;;;;;;;;;;;;;;;1481118;40;7000;-60
2021/04/07 03:20:31;;;;;;;;;;;;;;;;;;1482225;40;7906;-60
2021/04/07 03:21:33;;;;;;;;;;;;;;;;;;1480418;40;6991;-60
2021/04/07 03:22:35;;;;;;;;;;;;;;;;;;1478185;40;7044;-60
2021/04/07 03:23:37;;;;;;;;;;;;;;;;;;1478542;40;7116;-60
2021/04/07 03:24:39;;;;;;;;;;;;;;;;;;1478025;40;6999;-60
2021/04/07 03:25:42;;;;;;;;;;;;;;;;;;1478565;40;7863;-60
2021/04/07 03:26:44;;;;;;;;;;;;;;;;;;1480362;40;7154;-60
2021/04/07 03:27:46;;;;;;;;;;;;;;;;;;1480025;40;7007;-60
2021/04/07 03:28:48;;;;;;;;;;;;;;;;;;1479216;40;6995;-60
2021/04/07 03:29:52;;;;;;;;;;;;;;;;;;1479491;40;7011;-60
2021/04/07 03:30:53;;;;;;;;;;;;;;;;;;1478682;40;7035;-60
2021/04/07 03:31:56;;;;;;;;;;;;;;;;;;1478653;40;7931;-60
2021/04/07 03:32:58;;;;;;;;;;;;;;;;;;1479471;40;7008;-60
2021/04/07 03:34:00;;;;;;;;;;;;;;;;;;1479534;40;7958;-60
2021/04/07 03:35:02;;;;;;;;;;;;;;;;;;1478857;40;7107;-60
2021/04/07 03:36:05;;;;;;;;;;;;;;;;;;1479240;40;7911;-60
2021/04/07 03:37:07;;;;;;;;;;;;;;;;;;1479583;40;6991;-62
2021/04/07 03:38:09;;;;;;;;;;;;;;;;;;1479305;40;7156;-62
2021/04/07 03:39:11;;;;;;;;;;;;;;;;;;1479168;40;7028;-61
2021/04/07 03:40:13;;;;;;;;;;;;;;;;;;1479306;40;7872;-62
2021/04/07 03:41:15;;;;;;;;;;;;;;;;;;1479307;40;7177;-61
2021/04/07 03:42:17;;;;;;;;;;;;;;;;;;1479412;40;8736;-61
2021/04/07 03:43:20;;;;;;;;;;;;;;;;;;1479715;40;7020;-61
2021/04/07 03:44:22;;;;;;;;;;;;;;;;;;1483768;40;7059;-62
2021/04/07 03:45:24;;;;;;;;;;;;;;;;;;1483389;40;6994;-61
2021/04/07 03:46:26;;;;;;;;;;;;;;;;;;1483350;40;7036;-62
2021/04/07 03:47:28;;;;;;;;;;;;;;;;;;1483341;40;7079;-62
2021/04/07 03:48:31;;;;;;;;;;;;;;;;;;1483447;40;8005;-61
2021/04/07 03:49:33;;;;;;;;;;;;;;;;;;1483366;40;6999;-61
2021/04/07 03:50:35;;;;;;;;;;;;;;;;;;1483384;40;7048;-62
2021/04/07 03:51:37;;;;;;;;;;;;;;;;;;1479084;40;6999;-62
2021/04/07 03:52:38;;;;;;;;;;;;;;;;;;1479420;40;6995;-62
2021/04/07 03:53:40;;;;;;;;;;;;;;;;;;1479434;40;7307;-62
2021/04/07 03:54:44;;;;;;;;;;;;;;;;;;1479039;40;7929;-61
2021/04/07 03:55:47;;;;;;;;;;;;;;;;;;1479148;40;7015;-61
2021/04/07 03:56:49;;;;;;;;;;;;;;;;;;1479052;40;6992;-62
2021/04/07 03:57:52;;;;;;;;;;;;;;;;;;1479309;40;7938;-61
2021/04/07 03:58:55;;;;;;;;;;;;;;;;;;1479311;40;6991;-63
2021/04/07 03:59:57;;;;;;;;;;;;;;;;;;1479417;40;7005;-62
2021/04/07 04:01:00;;;;;;;;;;;;;;;;;;1479184;40;6992;-60
2021/04/07 04:02:02;;;;;;;;;;;;;;;;;;1479184;40;7043;-60
2021/04/07 04:03:04;;;;;;;;;;;;;;;;;;1479400;40;7035;-61
2021/04/07 04:04:08;;;;;;;;;;;;;;;;;;1479618;40;7011;-61
2021/04/07 04:05:10;;;;;;;;;;;;;;;;;;1479596;40;7027;-62
2021/04/07 04:06:12;;;;;;;;;;;;;;;;;;1478480;40;7011;-63
2021/04/07 04:07:14;;;;;;;;;;;;;;;;;;1478913;40;7000;-62
2021/04/07 04:08:17;;;;;;;;;;;;;;;;;;1478432;40;7116;-62
2021/04/07 04:09:19;;;;;;;;;;;;;;;;;;1478942;40;6999;-62
2021/04/07 04:10:21;;;;;;;;;;;;;;;;;;1479207;40;7015;-61
2021/04/07 04:11:23;;;;;;;;;;;;;;;;;;1478363;40;7066;-62
2021/04/07 04:12:25;;;;;;;;;;;;;;;;;;1478993;40;7004;-61
2021/04/07 04:13:27;;;;;;;;;;;;;;;;;;1479374;40;7939;-62
2021/04/07 04:14:29;;;;;;;;;;;;;;;;;;1479339;40;6996;-61
2021/04/07 04:15:32;;;;;;;;;;;;;;;;;;1478712;40;7000;-61
2021/04/07 04:16:34;;;;;;;;;;;;;;;;;;1478816;40;7007;-61
2021/04/07 04:17:40;;;;;;;;;;;;;;;;;;1478675;40;6999;-61
2021/04/07 04:18:42;;;;;;;;;;;;;;;;;;1478265;40;7015;-62
2021/04/07 04:19:44;;;;;;;;;;;;;;;;;;1478543;40;7039;-62
2021/04/07 04:20:46;;;;;;;;;;;;;;;;;;1478879;40;6999;-61
2021/04/07 04:21:48;;;;;;;;;;;;;;;;;;1478932;40;7459;-62
2021/04/07 04:22:50;;;;;;;;;;;;;;;;;;1478293;40;7012;-61
2021/04/07 04:23:52;;;;;;;;;;;;;;;;;;1479217;40;7934;-62
2021/04/07 04:24:54;;;;;;;;;;;;;;;;;;1479300;40;6991;-62
2021/04/07 04:25:56;;;;;;;;;;;;;;;;;;1479012;40;7040;-61
2021/04/07 04:26:58;;;;;;;;;;;;;;;;;;1478821;40;7000;-62
2021/04/07 04:28:00;;;;;;;;;;;;;;;;;;1479171;40;7047;-62
2021/04/07 04:29:02;;;;;;;;;;;;;;;;;;1479450;40;6995;-60
2021/04/07 04:30:05;;;;;;;;;;;;;;;;;;1479042;40;7035;-62
2021/04/07 04:31:06;;;;;;;;;;;;;;;;;;1478607;40;6992;-62
2021/04/07 04:32:08;;;;;;;;;;;;;;;;;;1478983;40;7000;-61
2021/04/07 04:33:11;;;;;;;;;;;;;;;;;;1479202;40;7190;-62
2021/04/07 04:34:13;;;;;;;;;;;;;;;;;;1478993;40;6992;-61
2021/04/07 04:35:14;;;;;;;;;;;;;;;;;;1479040;40;7044;-62
2021/04/07 04:36:16;;;;;;;;;;;;;;;;;;1479413;40;7015;-62
2021/04/07 04:37:18;;;;;;;;;;;;;;;;;;1479472;40;7028;-62
2021/04/07 04:38:20;;;;;;;;;;;;;;;;;;1479059;40;7000;-62
2021/04/07 04:39:22;;;;;;;;;;;;;;;;;;1479404;40;7944;-62
2021/04/07 04:40:24;;;;;;;;;;;;;;;;;;1477827;40;7023;-62
2021/04/07 04:41:26;;;;;;;;;;;;;;;;;;1479433;40;7028;-61
2021/04/07 04:42:28;;;;;;;;;;;;;;;;;;1479420;40;6996;-62
2021/04/07 04:43:30;;;;;;;;;;;;;;;;;;1479261;40;7008;-61
2021/04/07 04:44:32;;;;;;;;;;;;;;;;;;1474667;40;7930;-62
2021/04/07 04:45:36;;;;;;;;;;;;;;;;;;1475090;40;7043;-62
2021/04/07 04:46:37;;;;;;;;;;;;;;;;;;1479444;40;7004;-61
2021/04/07 04:47:39;;;;;;;;;;;;;;;;;;1478586;40;7008;-62
2021/04/07 04:48:41;;;;;;;;;;;;;;;;;;1478245;40;7127;-61
2021/04/07 04:49:44;;;;;;;;;;;;;;;;;;1479541;40;6992;-62
2021/04/07 04:50:46;;;;;;;;;;;;;;;;;;1479268;40;7574;-62
2021/04/07 04:51:48;;;;;;;;;;;;;;;;;;1479356;40;7000;-63
2021/04/07 04:52:50;;;;;;;;;;;;;;;;;;1479375;40;7111;-63
2021/04/07 04:53:54;;;;;;;;;;;;;;;;;;1479328;40;7947;-62
2021/04/07 04:54:56;;;;;;;;;;;;;;;;;;1479003;40;6999;-61
2021/04/07 04:55:58;;;;;;;;;;;;;;;;;;1479708;40;7192;-62
2021/04/07 04:57:00;;;;;;;;;;;;;;;;;;1478572;40;7008;-62
2021/04/07 04:58:02;;;;;;;;;;;;;;;;;;1479639;40;6995;-62
2021/04/07 04:59:04;;;;;;;;;;;;;;;;;;1479286;40;7929;-62
2021/04/07 05:00:07;;;;;;;;;;;;;;;;;;1479204;40;7246;-61
2021/04/07 05:01:09;;;;;;;;;;;;;;;;;;1479163;40;7123;-62
2021/04/07 05:02:11;;;;;;;;;;;;;;;;;;1479081;40;7035;-62
2021/04/07 05:03:13;;;;;;;;;;;;;;;;;;1479231;40;8268;-62
2021/04/07 05:04:15;;;;;;;;;;;;;;;;;;1479464;40;7156;-62
2021/04/07 05:05:17;;;;;;;;;;;;;;;;;;1479286;40;8300;-62
2021/04/07 05:06:19;;;;;;;;;;;;;;;;;;1478555;40;8085;-63
2021/04/07 05:07:21;;;;;;;;;;;;;;;;;;1479556;40;6991;-62
2021/04/07 05:08:23;;;;;;;;;;;;;;;;;;1478571;40;7040;-62
2021/04/07 05:09:25;;;;;;;;;;;;;;;;;;1478952;40;7051;-61
2021/04/07 05:10:27;;;;;;;;;;;;;;;;;;1479400;40;7120;-61
2021/04/07 05:11:32;;;;;;;;;;;;;;;;;;1479244;40;7063;-61
2021/04/07 05:12:34;;;;;;;;;;;;;;;;;;1479330;40;7902;-62
2021/04/07 05:13:35;;;;;;;;;;;;;;;;;;1479092;40;6987;-62
2021/04/07 05:14:37;;;;;;;;;;;;;;;;;;1478973;40;7927;-62
2021/04/07 05:15:39;;;;;;;;;;;;;;;;;;1478860;40;6999;-62
2021/04/07 05:16:41;;;;;;;;;;;;;;;;;;1478400;40;7238;-62
2021/04/07 05:17:44;;;;;;;;;;;;;;;;;;1479148;40;8024;-63
2021/04/07 05:18:46;;;;;;;;;;;;;;;;;;1478681;40;7911;-62
2021/04/07 05:19:48;;;;;;;;;;;;;;;;;;1478834;40;7530;-62
2021/04/07 05:20:51;;;;;;;;;;;;;;;;;;1478934;40;7313;-62
2021/04/07 05:21:53;;;;;;;;;;;;;;;;;;1478899;40;7186;-62
2021/04/07 05:22:54;;;;;;;;;;;;;;;;;;1478664;40;7039;-62
2021/04/07 05:23:56;;;;;;;;;;;;;;;;;;1478846;40;7959;-62
2021/04/07 05:24:58;;;;;;;;;;;;;;;;;;1479340;40;7008;-63
2021/04/07 05:26:00;;;;;;;;;;;;;;;;;;1479585;40;7032;-61
2021/04/07 05:27:02;;;;;;;;;;;;;;;;;;1479134;40;7199;-62
2021/04/07 05:28:06;;;;;;;;;;;;;;;;;;1479100;40;7031;-62
2021/04/07 05:29:08;;;;;;;;;;;;;;;;;;1479237;40;7003;-62
2021/04/07 05:30:10;;;;;;;;;;;;;;;;;;1478899;40;7204;-62
2021/04/07 05:31:13;;;;;;;;;;;;;;;;;;1478349;40;7027;-62
2021/04/07 05:32:15;;;;;;;;;;;;;;;;;;1479041;40;7003;-62
2021/04/07 05:33:18;;;;;;;;;;;;;;;;;;1479131;40;7003;-63
2021/04/07 05:34:20;;;;;;;;;;;;;;;;;;1479304;40;7034;-61
2021/04/07 05:35:22;;;;;;;;;;;;;;;;;;1479416;40;7008;-62
2021/04/07 05:36:24;;;;;;;;;;;;;;;;;;1479041;40;7012;-62
2021/04/07 05:37:26;;;;;;;;;;;;;;;;;;1479636;40;6991;-62
2021/04/07 05:38:28;;;;;;;;;;;;;;;;;;1479283;40;7121;-62
2021/04/07 05:39:30;;;;;;;;;;;;;;;;;;1479488;40;7161;-62
2021/04/07 05:40:32;;;;;;;;;;;;;;;;;;1479461;40;7023;-62
2021/04/07 05:41:43;;;;;;;;;;;;;;;;;;1479113;40;7901;-62
2021/04/07 05:42:45;;;;;;;;;;;;;;;;;;1479465;40;7106;-61
2021/04/07 05:43:47;;;;;;;;;;;;;;;;;;1479484;40;6992;-60
2021/04/07 05:44:49;;;;;;;;;;;;;;;;;;1477678;40;7019;-62
2021/04/07 05:45:51;;;;;;;;;;;;;;;;;;1479007;40;7140;-62
2021/04/07 05:46:53;;;;;;;;;;;;;;;;;;1479105;40;6992;-61
2021/04/07 05:47:55;;;;;;;;;;;;;;;;;;1479009;40;6991;-62
2021/04/07 05:48:57;;;;;;;;;;;;;;;;;;1478972;40;7919;-62
2021/04/07 05:49:59;;;;;;;;;;;;;;;;;;1479177;40;7840;-62
2021/04/07 05:51:01;;;;;;;;;;;;;;;;;;1479645;40;7039;-61
2021/04/07 05:52:03;;;;;;;;;;;;;;;;;;1479786;40;7202;-62
2021/04/07 05:53:05;;;;;;;;;;;;;;;;;;1486586;40;6999;-62
2021/04/07 05:54:07;;;;;;;;;;;;;;;;;;1483165;40;6991;-62
2021/04/07 05:55:10;;;;;;;;;;;;;;;;;;1483417;40;6996;-62
2021/04/07 05:56:12;;;;;;;;;;;;;;;;;;1483668;40;7027;-62
2021/04/07 05:57:14;;;;;;;;;;;;;;;;;;1483749;40;7027;-62
2021/04/07 05:58:16;;;;;;;;;;;;;;;;;;1483477;40;7004;-62
2021/04/07 05:59:18;;;;;;;;;;;;;;;;;;1483615;40;7034;-62
2021/04/07 06:00:21;;;;;;;;;;;;;;;;;;1483007;40;6991;-62
2021/04/07 06:01:22;;;;;;;;;;;;;;;;;;1483537;40;8262;-62
2021/04/07 06:02:26;;;;;;;;;;;;;;;;;;1481683;40;7186;-61
2021/04/07 06:03:28;;;;;;;;;;;;;;;;;;1483192;40;7239;-62
2021/04/07 06:04:30;;;;;;;;;;;;;;;;;;1479393;40;6991;-61
2021/04/07 06:05:33;;;;;;;;;;;;;;;;;;1479174;40;7023;-62
2021/04/07 06:06:35;;;;;;;;;;;;;;;;;;1481546;40;7199;-63
2021/04/07 06:07:37;;;;;;;;;;;;;;;;;;1483429;40;7043;-62
2021/04/07 06:08:39;;;;;;;;;;;;;;;;;;1480362;40;6995;-62
2021/04/07 06:09:42;;;;;;;;;;;;;;;;;;1480435;40;7038;-60
2021/04/07 06:10:46;;;;;;;;;;;;;;;;;;1482390;40;6999;-62
2021/04/07 06:11:47;;;;;;;;;;;;;;;;;;1481148;40;6999;-62
2021/04/07 06:12:50;;;;;;;;;;;;;;;;;;1480819;40;7900;-62
2021/04/07 06:13:52;;;;;;;;;;;;;;;;;;1480003;40;7043;-62
2021/04/07 06:14:53;;;;;;;;;;;;;;;;;;1479827;40;7003;-63
2021/04/07 06:15:55;;;;;;;;;;;;;;;;;;1479154;40;7023;-61
2021/04/07 06:16:57;;;;;;;;;;;;;;;;;;1482441;40;6991;-61
2021/04/07 06:18:04;;;;;;;;;;;;;;;;;;1479812;40;7179;-63
2021/04/07 06:19:06;;;;;;;;;;;;;;;;;;1479966;40;6991;-62
2021/04/07 06:20:09;;;;;;;;;;;;;;;;;;1480304;40;7003;-62
2021/04/07 06:21:12;;;;;;;;;;;;;;;;;;1480413;40;7083;-62
2021/04/07 06:22:14;;;;;;;;;;;;;;;;;;1480676;40;7215;-62
2021/04/07 06:23:16;;;;;;;;;;;;;;;;;;1480441;40;7031;-62
2021/04/07 06:24:18;;;;;;;;;;;;;;;;;;1480904;40;6999;-60
2021/04/07 06:25:21;;;;;;;;;;;;;;;;;;1480357;40;7008;-61
2021/04/07 06:26:22;;;;;;;;;;;;;;;;;;1482624;40;8001;-61
2021/04/07 06:27:24;;;;;;;;;;;;;;;;;;1481167;40;6992;-60
2021/04/07 06:28:26;;;;;;;;;;;;;;;;;;1481330;40;7398;-61
2021/04/07 06:29:28;;;;;;;;;;;;;;;;;;1481516;40;7116;-62
2021/04/07 06:30:46;;;;;;;;;;;;;;;;;;1480778;40;7929;-63
2021/04/07 06:31:48;;;;;;;;;;;;;;;;;;1479514;40;7031;-62
2021/04/07 06:32:51;;;;;;;;;;;;;;;;;;1479874;40;8255;-62
2021/04/07 06:33:52;;;;;;;;;;;;;;;;;;1482778;40;7032;-62
2021/04/07 06:34:54;;;;;;;;;;;;;;;;;;1480798;40;7191;-63
2021/04/07 06:35:58;;;;;;;;;;;;;;;;;;1480433;40;6991;-62
2021/04/07 06:37:00;;;;;;;;;;;;;;;;;;1479769;40;6987;-62
2021/04/07 06:38:03;;;;;;;;;;;;;;;;;;1483537;40;7027;-62
2021/04/07 06:39:05;;;;;;;;;;;;;;;;;;1481198;40;6987;-62
2021/04/07 06:40:07;;;;;;;;;;;;;;;;;;1479432;40;6999;-62
2021/04/07 06:41:10;;;;;;;;;;;;;;;;;;1480177;40;7946;-62
2021/04/07 06:42:12;;;;;;;;;;;;;;;;;;1480395;40;6999;-63
2021/04/07 06:43:15;;;;;;;;;;;;;;;;;;1483510;40;6999;-62
2021/04/07 06:44:19;;;;;;;;;;;;;;;;;;1480852;40;7124;-61
2021/04/07 06:45:21;;;;;;;;;;;;;;;;;;1480928;40;7937;-61
2021/04/07 06:46:24;;;;;;;;;;;;;;;;;;1487458;39;7195;-62
2021/04/07 06:47:26;;;;;;;;;;;;;;;;;;1486962;39;6995;-62
2021/04/07 06:48:29;;;;;;;;;;;;;;;;;;1479789;40;7000;-62
2021/04/07 06:49:33;;;;;;;;;;;;;;;;;;1481688;40;8412;-61
2021/04/07 06:50:36;;;;;;;;;;;;;;;;;;1481920;40;7111;-62
2021/04/07 06:51:39;;;;;;;;;;;;;;;;;;1481715;40;7905;-61
2021/04/07 06:52:43;;;;;;;;;;;;;;;;;;1482716;40;7481;-63
2021/04/07 06:53:49;;;;;;;;;;;;;;;;;;1482434;40;7970;-62
2021/04/07 06:54:52;;;;;;;;;;;;;;;;;;1480426;40;7890;-62
2021/04/07 06:55:55;;;;;;;;;;;;;;;;;;1481315;40;7125;-62
2021/04/07 06:56:57;;;;;;;;;;;;;;;;;;1480024;40;7906;-62
2021/04/07 06:58:01;;;;;;;;;;;;;;;;;;1482057;40;7903;-62
2021/04/07 06:59:02;;;;;;;;;;;;;;;;;;1481393;40;7008;-62
2021/04/07 07:00:06;;;;;;;;;;;;;;;;;;1486903;40;7913;-62
2021/04/07 07:01:08;;;;;;;;;;;;;;;;;;1486053;40;6991;-62
2021/04/07 07:02:11;;;;;;;;;;;;;;;;;;1480326;40;7198;-62
2021/04/07 07:03:18;;;;;;;;;;;;;;;;;;1480631;40;7043;-62
2021/04/07 07:04:20;;;;;;;;;;;;;;;;;;1481930;40;7903;-62
2021/04/07 07:05:22;;;;;;;;;;;;;;;;;;1484227;40;7040;-62
2021/04/07 07:06:24;;;;;;;;;;;;;;;;;;1484153;40;7918;-62
2021/04/07 07:07:25;;;;;;;;;;;;;;;;;;1483570;40;7934;-61
2021/04/07 07:08:30;;;;;;;;;;;;;;;;;;1480484;40;7013;-61
2021/04/07 07:09:32;;;;;;;;;;;;;;;;;;1478971;40;7120;-62
2021/04/07 07:10:34;;;;;;;;;;;;;;;;;;1482504;40;7023;-61
2021/04/07 07:11:36;;;;;;;;;;;;;;;;;;1481207;40;7035;-62
2021/04/07 07:12:39;;;;;;;;;;;;;;;;;;1483104;40;7110;-62
2021/04/07 07:13:41;;;;;;;;;;;;;;;;;;1480176;40;7000;-62
2021/04/07 07:14:45;;;;;;;;;;;;;;;;;;1482456;40;7003;-62